Time;durP1;ratioP1;P1;durP2;ratioP2;P2;SDS_P1;SDS_P2;PMS_P1;PMS_P2;Temp;Humidity;BMP_temperature;BMP_pressure;BME280_temperature;BME280_humidity;BME280_pressure;Samples;Min_cycle;Max_cycle;Signal;HPM_P1;HPM_P2
2022/01/09 00:00:23;;;;;;;2.40;1.40;;;;;;;3.02;100.00;98155.03;848520;23;879;-50
2022/01/09 00:00:44;;;;;;;2.40;1.27;;;;;;;3.14;100.00;98158.31;848482;23;934;-51
2022/01/09 00:01:04;;;;;;;2.00;1.30;;;;;;;3.16;100.00;98157.41;848283;23;918;-50
2022/01/09 00:01:25;;;;;;;2.03;1.30;;;;;;;3.19;100.00;98159.09;846991;23;4600;-50
2022/01/09 00:01:45;;;;;;;2.15;1.20;;;;;;;3.16;100.00;98154.81;842628;23;911;-49
2022/01/09 00:02:06;;;;;;;1.87;1.10;;;;;;;3.20;100.00;98164.22;844178;23;850;-49
2022/01/09 00:02:26;;;;;;;2.05;1.10;;;;;;;3.16;100.00;98151.41;843850;23;954;-49
2022/01/09 00:02:47;;;;;;;2.03;1.17;;;;;;;3.18;100.00;98147.06;843948;23;922;-50
2022/01/09 00:03:07;;;;;;;1.92;1.13;;;;;;;3.20;100.00;98150.47;843249;23;764;-51
2022/01/09 00:03:27;;;;;;;2.20;1.10;;;;;;;3.18;100.00;98150.47;843948;23;701;-50
2022/01/09 00:03:48;;;;;;;2.17;1.10;;;;;;;3.12;100.00;98154.91;846429;23;896;-53
2022/01/09 00:04:08;;;;;;;3.60;1.27;;;;;;;3.03;100.00;98149.00;847075;23;780;-49
2022/01/09 00:04:29;;;;;;;3.38;1.38;;;;;;;2.99;100.00;98152.50;846442;23;4388;-49
2022/01/09 00:04:49;;;;;;;2.80;1.50;;;;;;;2.94;100.00;98156.88;848689;23;916;-48
2022/01/09 00:05:11;;;;;;;2.67;1.30;;;;;;;2.92;100.00;98158.59;848397;23;824;-50
2022/01/09 00:05:31;;;;;;;2.50;1.30;;;;;;;3.07;100.00;98162.69;848167;23;898;-49
2022/01/09 00:05:51;;;;;;;2.83;1.40;;;;;;;3.09;100.00;98152.34;848573;23;884;-50
2022/01/09 00:06:14;;;;;;;2.33;1.37;;;;;;;3.01;100.00;98148.16;848111;23;898;-52
2022/01/09 00:06:35;;;;;;;1.88;1.20;;;;;;;2.98;100.00;98153.38;843328;23;788;-49
2022/01/09 00:06:55;;;;;;;2.83;1.40;;;;;;;2.97;100.00;98145.66;842244;23;1147;-50
2022/01/09 00:07:15;;;;;;;2.20;1.23;;;;;;;2.94;100.00;98149.13;839992;23;880;-51
2022/01/09 00:07:36;;;;;;;1.95;1.25;;;;;;;3.00;100.00;98151.59;833395;23;4608;-50
2022/01/09 00:07:57;;;;;;;2.80;1.40;;;;;;;3.05;100.00;98147.25;835084;23;863;-50
2022/01/09 00:08:17;;;;;;;2.27;1.20;;;;;;;3.08;100.00;98150.66;836135;23;1906;-50
2022/01/09 00:08:38;;;;;;;2.40;1.30;;;;;;;3.13;100.00;98151.44;839282;23;840;-51
2022/01/09 00:08:58;;;;;;;2.70;1.30;;;;;;;3.16;100.00;98152.25;840377;23;822;-50
2022/01/09 00:09:19;;;;;;;3.00;1.30;;;;;;;3.23;100.00;98155.59;844223;23;1082;-49
2022/01/09 00:09:42;;;;;;;2.77;1.27;;;;;;;3.26;100.00;98155.53;847346;23;915;-48
2022/01/09 00:10:03;;;;;;;2.15;1.20;;;;;;;3.20;100.00;98142.75;847127;23;1120;-49
2022/01/09 00:10:26;;;;;;;2.80;1.50;;;;;;;3.14;100.00;98147.97;844985;23;4301;-49
2022/01/09 00:10:47;;;;;;;2.25;1.38;;;;;;;3.10;100.00;98154.06;843541;23;926;-49
2022/01/09 00:11:08;;;;;;;2.45;1.38;;;;;;;3.09;100.00;98157.50;842063;23;1843;-50
2022/01/09 00:11:28;;;;;;;1.70;1.15;;;;;;;3.02;100.00;98149.88;843322;23;848;-49
2022/01/09 00:11:48;;;;;;;2.03;1.23;;;;;;;2.97;100.00;98150.81;843589;23;797;-49
2022/01/09 00:12:09;;;;;;;2.20;1.40;;;;;;;2.92;100.00;98145.69;843556;23;764;-49
2022/01/09 00:12:29;;;;;;;2.17;1.20;;;;;;;3.01;100.00;98153.31;843439;23;890;-49
2022/01/09 00:12:50;;;;;;;2.17;1.20;;;;;;;3.03;100.00;98142.97;848037;23;1130;-49
2022/01/09 00:13:10;;;;;;;2.20;1.20;;;;;;;3.11;100.00;98150.63;847749;23;807;-51
2022/01/09 00:13:30;;;;;;;2.27;1.30;;;;;;;3.12;100.00;98145.41;845472;23;4842;-51
2022/01/09 00:13:52;;;;;;;2.42;1.27;;;;;;;3.15;100.00;98149.69;847623;23;875;-49
2022/01/09 00:14:12;;;;;;;2.72;1.30;;;;;;;3.13;100.00;98141.09;847649;23;807;-49
2022/01/09 00:14:33;;;;;;;3.10;1.40;;;;;;;3.10;100.00;98146.31;847870;23;791;-49
2022/01/09 00:14:53;;;;;;;3.40;1.30;;;;;;;3.09;100.00;98140.31;848065;23;780;-49
2022/01/09 00:15:14;;;;;;;2.85;1.40;;;;;;;3.07;100.00;98136.88;848335;23;875;-53
2022/01/09 00:15:34;;;;;;;2.55;1.40;;;;;;;3.11;100.00;98135.97;847409;23;855;-49
2022/01/09 00:15:54;;;;;;;2.57;1.47;;;;;;;3.02;100.00;98139.53;847854;23;946;-49
2022/01/09 00:16:15;;;;;;;2.43;1.20;;;;;;;2.98;100.00;98137.03;846145;23;1693;-50
2022/01/09 00:16:35;;;;;;;2.60;1.30;;;;;;;3.03;100.00;98141.25;846010;23;4301;-49
2022/01/09 00:16:56;;;;;;;2.47;1.30;;;;;;;3.06;100.00;98141.22;847506;23;847;-50
2022/01/09 00:17:16;;;;;;;2.25;1.25;;;;;;;3.08;100.00;98132.59;846698;23;824;-50
2022/01/09 00:17:36;;;;;;;2.53;1.27;;;;;;;3.13;100.00;98138.50;847426;23;877;-51
2022/01/09 00:17:57;;;;;;;2.30;1.10;;;;;;;3.17;100.00;98140.19;847586;23;954;-49
2022/01/09 00:18:17;;;;;;;2.03;1.20;;;;;;;3.21;100.00;98131.50;847838;23;883;-50
2022/01/09 00:18:38;;;;;;;2.42;1.20;;;;;;;3.26;100.00;98134.88;847998;23;943;-51
2022/01/09 00:18:58;;;;;;;2.07;1.20;;;;;;;3.24;100.00;98132.31;848277;23;757;-49
2022/01/09 00:19:18;;;;;;;2.47;1.40;;;;;;;3.16;100.00;98125.59;847420;23;4388;-51
2022/01/09 00:19:39;;;;;;;2.40;1.20;;;;;;;3.15;100.00;98129.88;847301;23;843;-49
2022/01/09 00:19:59;;;;;;;1.90;1.17;;;;;;;3.10;100.00;98130.81;847466;23;915;-49
2022/01/09 00:20:19;;;;;;;1.90;1.20;;;;;;;3.04;100.00;98132.63;847645;23;899;-49
2022/01/09 00:20:40;;;;;;;2.10;1.30;;;;;;;3.03;100.00;98135.22;847538;23;919;-50
2022/01/09 00:21:06;;;;;;;2.33;1.23;;;;;;;3.01;100.00;98135.25;848343;23;910;-49
2022/01/09 00:21:26;;;;;;;2.70;1.30;;;;;;;3.00;100.00;98133.53;848429;23;1081;-48
2022/01/09 00:21:46;;;;;;;2.47;1.30;;;;;;;3.08;100.00;98132.59;847488;23;879;-50
2022/01/09 00:22:07;;;;;;;2.35;1.30;;;;;;;3.07;100.00;98126.56;847463;23;717;-49
2022/01/09 00:22:58;;;;;;;2.50;1.50;;;;;;;3.15;100.00;98129.03;847670;23;895;-50
2022/01/09 00:23:18;;;;;;;2.33;1.30;;;;;;;3.14;100.00;98119.56;847801;23;696;-52
2022/01/09 00:23:39;;;;;;;2.07;1.13;;;;;;;3.09;100.00;98123.94;847567;23;878;-47
2022/01/09 00:23:59;;;;;;;2.22;1.13;;;;;;;3.16;100.00;98129.00;842968;23;899;-50
2022/01/09 00:24:20;;;;;;;2.20;1.20;;;;;;;3.14;100.00;98123.00;844324;23;918;-50
2022/01/09 00:24:40;;;;;;;2.25;1.17;;;;;;;3.17;100.00;98122.09;843960;23;745;-54
2022/01/09 00:25:00;;;;;;;2.37;1.20;;;;;;;3.17;100.00;98122.97;842130;23;914;-49
2022/01/09 00:25:23;;;;;;;1.98;1.20;;;;;;;3.22;100.00;98120.31;842489;23;5210;-49
2022/01/09 00:25:43;;;;;;;2.60;1.20;;;;;;;3.20;100.00;98127.25;844119;23;839;-49
2022/01/09 00:26:06;;;;;;;2.10;1.20;;;;;;;3.15;100.00;98126.44;847318;23;859;-50
2022/01/09 00:26:26;;;;;;;2.70;1.10;;;;;;;3.19;100.00;98131.53;847789;23;733;-50
2022/01/09 00:26:47;;;;;;;3.22;1.30;;;;;;;3.27;100.00;98125.41;843991;23;788;-50
2022/01/09 00:27:09;;;;;;;3.50;1.30;;;;;;;3.30;100.00;98126.22;843880;23;903;-51
2022/01/09 00:27:30;;;;;;;3.03;1.35;;;;;;;3.30;100.00;98131.38;837730;23;1388;-52
2022/01/09 00:27:51;;;;;;;2.37;1.10;;;;;;;3.29;100.00;98124.50;839368;23;779;-51
2022/01/09 00:28:12;;;;;;;2.40;1.15;;;;;;;3.24;100.00;98118.56;837476;23;2201;-49
2022/01/09 00:28:32;;;;;;;1.95;1.10;;;;;;;3.23;100.00;98116.88;837627;23;4502;-49
2022/01/09 00:28:52;;;;;;;2.00;1.30;;;;;;;3.19;100.00;98116.03;843395;23;689;-50
2022/01/09 00:29:14;;;;;;;2.67;1.40;;;;;;;3.24;100.00;98118.56;844154;23;779;-52
2022/01/09 00:29:34;;;;;;;2.35;1.25;;;;;;;3.25;100.00;98125.41;847561;23;906;-50
2022/01/09 00:29:54;;;;;;;2.03;1.20;;;;;;;3.30;100.00;98128.78;847526;23;911;-49
2022/01/09 00:30:17;;;;;;;1.97;1.10;;;;;;;3.32;100.00;98115.84;847062;23;924;-49
2022/01/09 00:30:37;;;;;;;1.73;1.00;;;;;;;3.35;100.00;98124.41;847534;23;831;-49
2022/01/09 00:30:58;;;;;;;1.65;0.88;;;;;;;3.36;100.00;98120.94;848064;23;795;-50
2022/01/09 00:31:18;;;;;;;1.83;1.03;;;;;;;3.36;100.00;98118.34;847060;23;4270;-49
2022/01/09 00:31:38;;;;;;;1.95;1.20;;;;;;;3.36;100.00;98122.66;846854;23;800;-48
2022/01/09 00:31:59;;;;;;;2.33;1.30;;;;;;;3.33;100.00;98120.16;845738;23;890;-54
2022/01/09 00:32:19;;;;;;;2.65;1.30;;;;;;;3.34;100.00;98114.94;847148;23;884;-49
2022/01/09 00:32:40;;;;;;;2.97;1.20;;;;;;;3.30;100.00;98126.22;845789;23;800;-50
2022/01/09 00:33:00;;;;;;;2.90;1.30;;;;;;;3.31;100.00;98122.75;847874;23;783;-51
2022/01/09 00:33:22;;;;;;;2.43;1.30;;;;;;;3.27;100.00;98120.22;843428;23;942;-49
2022/01/09 00:33:42;;;;;;;2.03;1.20;;;;;;;3.21;100.00;98114.31;839805;23;820;-51
2022/01/09 00:34:03;;;;;;;2.07;1.20;;;;;;;3.19;100.00;98120.38;843952;23;768;-50
2022/01/09 00:34:23;;;;;;;1.83;0.90;;;;;;;3.15;100.00;98118.72;841341;23;4372;-49
2022/01/09 00:34:43;;;;;;;2.20;1.10;;;;;;;3.19;100.00;98123.78;842982;23;900;-50
2022/01/09 00:35:05;;;;;;;2.22;1.20;;;;;;;3.18;100.00;98119.50;843949;23;852;-49
2022/01/09 00:35:26;;;;;;;2.33;1.27;;;;;;;3.12;100.00;98118.75;842025;23;780;-48
2022/01/09 00:35:48;;;;;;;2.17;1.30;;;;;;;3.11;100.00;98127.38;838049;23;1163;-48
2022/01/09 00:36:09;;;;;;;2.17;1.20;;;;;;;3.15;100.00;98123.88;838179;23;1371;-51
2022/01/09 00:36:30;;;;;;;3.03;1.27;;;;;;;3.10;100.00;98112.75;838807;23;820;-50
2022/01/09 00:36:51;;;;;;;3.13;1.30;;;;;;;3.04;100.00;98116.28;834043;23;1215;-49
2022/01/09 00:37:11;;;;;;;2.63;1.40;;;;;;;2.97;100.00;98118.09;836074;23;757;-49
2022/01/09 00:37:32;;;;;;;2.00;1.23;;;;;;;2.93;100.00;98119.03;838300;23;4294;-53
2022/01/09 00:37:52;;;;;;;2.20;1.30;;;;;;;3.06;100.00;98123.13;843433;23;879;-49
2022/01/09 00:38:13;;;;;;;1.97;1.20;;;;;;;3.04;100.00;98113.72;843686;23;922;-49
2022/01/09 00:38:33;;;;;;;2.20;1.10;;;;;;;3.01;100.00;98117.19;842783;23;749;-48
2022/01/09 00:38:54;;;;;;;2.47;1.23;;;;;;;3.00;100.00;98120.63;847772;23;860;-49
2022/01/09 00:39:14;;;;;;;3.45;1.38;;;;;;;2.99;100.00;98123.25;847637;23;749;-49
2022/01/09 00:39:34;;;;;;;2.80;1.40;;;;;;;3.08;100.00;98128.28;847866;23;907;-49
2022/01/09 00:39:55;;;;;;;2.08;1.27;;;;;;;3.21;100.00;98131.50;846442;23;831;-50
2022/01/09 00:40:16;;;;;;;2.20;1.20;;;;;;;3.24;100.00;98118.56;842501;23;1503;-51
2022/01/09 00:40:36;;;;;;;2.50;1.20;;;;;;;3.33;100.00;98117.56;840947;23;4457;-48
2022/01/09 00:40:58;;;;;;;2.88;1.40;;;;;;;3.32;100.00;98114.09;843406;23;805;-49
2022/01/09 00:41:19;;;;;;;3.08;1.80;;;;;;;3.24;100.00;98119.41;844262;23;824;-49
2022/01/09 00:41:39;;;;;;;2.60;1.40;;;;;;;3.20;100.00;98122.91;839716;23;899;-50
2022/01/09 00:41:59;;;;;;;2.70;1.30;;;;;;;3.16;100.00;98116.09;840369;23;947;-50
2022/01/09 00:42:20;;;;;;;2.57;1.10;;;;;;;3.14;100.00;98111.84;843701;23;744;-51
2022/01/09 00:42:41;;;;;;;2.13;1.20;;;;;;;3.23;100.00;98114.28;841612;23;1120;-49
2022/01/09 00:43:01;;;;;;;1.65;1.10;;;;;;;3.22;100.00;98118.56;840353;23;926;-50
2022/01/09 00:43:22;;;;;;;1.90;1.10;;;;;;;3.16;100.00;98115.25;837617;23;4334;-52
2022/01/09 00:43:43;;;;;;;1.73;1.20;;;;;;;3.19;100.00;98115.22;842971;23;891;-53
2022/01/09 00:44:04;;;;;;;2.20;1.25;;;;;;;3.14;100.00;98117.84;843845;23;931;-52
2022/01/09 00:44:25;;;;;;;2.78;1.10;;;;;;;3.10;100.00;98117.91;843479;23;812;-52
2022/01/09 00:44:45;;;;;;;2.27;1.20;;;;;;;3.15;100.00;98113.53;843277;23;737;-50
2022/01/09 00:45:07;;;;;;;2.35;1.20;;;;;;;3.13;100.00;98118.75;843907;23;903;-50
2022/01/09 00:45:28;;;;;;;2.60;1.25;;;;;;;3.15;100.00;98111.81;847815;23;903;-50
2022/01/09 00:45:48;;;;;;;2.10;1.20;;;;;;;3.22;100.00;98110.81;847496;23;919;-51
2022/01/09 00:46:09;;;;;;;2.15;1.20;;;;;;;3.22;100.00;98112.56;847504;23;930;-51
2022/01/09 00:46:29;;;;;;;3.00;1.30;;;;;;;3.23;100.00;98117.69;846093;23;4423;-51
2022/01/09 00:46:49;;;;;;;2.40;1.20;;;;;;;3.27;100.00;98112.47;843418;23;796;-50
2022/01/09 00:47:10;;;;;;;2.10;1.10;;;;;;;3.26;100.00;98119.38;843158;23;753;-50
2022/01/09 00:47:30;;;;;;;2.30;1.30;;;;;;;3.35;100.00;98114.09;843230;23;736;-53
2022/01/09 00:47:50;;;;;;;2.47;1.23;;;;;;;3.38;100.00;98110.59;838359;23;1007;-49
2022/01/09 00:48:11;;;;;;;2.10;1.10;;;;;;;3.30;100.00;98110.72;839492;23;856;-51
2022/01/09 00:48:31;;;;;;;2.17;1.13;;;;;;;3.30;100.00;98115.03;839450;23;1901;-49
2022/01/09 00:48:52;;;;;;;2.80;1.45;;;;;;;3.23;100.00;98109.13;843962;23;946;-49
2022/01/09 00:49:12;;;;;;;2.77;1.40;;;;;;;3.18;100.00;98113.50;843292;23;911;-50
2022/01/09 00:49:32;;;;;;;2.37;1.27;;;;;;;3.12;100.00;98113.59;841715;23;4264;-52
2022/01/09 00:49:53;;;;;;;2.30;1.30;;;;;;;3.23;100.00;98111.69;847095;23;879;-50
2022/01/09 00:50:14;;;;;;;2.03;1.17;;;;;;;3.20;100.00;98109.16;847289;23;906;-51
2022/01/09 00:50:36;;;;;;;1.63;1.10;;;;;;;3.25;100.00;98109.94;843181;23;828;-49
2022/01/09 00:50:58;;;;;;;2.53;1.17;;;;;;;3.25;100.00;98107.34;843768;23;934;-51
2022/01/09 00:51:18;;;;;;;2.38;1.10;;;;;;;3.30;100.00;98102.13;843314;23;860;-49
2022/01/09 00:51:39;;;;;;;1.73;1.00;;;;;;;3.35;100.00;98108.91;843457;23;887;-50
2022/01/09 00:51:59;;;;;;;1.67;1.10;;;;;;;3.35;100.00;98110.63;842500;23;1120;-49
2022/01/09 00:52:19;;;;;;;1.90;1.10;;;;;;;3.26;100.00;98105.63;842966;23;4341;-50
2022/01/09 00:52:40;;;;;;;2.07;1.13;;;;;;;3.19;100.00;98107.47;847270;23;852;-49
2022/01/09 00:53:00;;;;;;;1.92;1.10;;;;;;;3.24;100.00;98110.81;847426;23;899;-51
2022/01/09 00:53:20;;;;;;;2.27;1.20;;;;;;;3.17;100.00;98102.31;846854;23;859;-49
2022/01/09 00:53:41;;;;;;;2.22;1.23;;;;;;;3.15;100.00;98104.06;847622;23;819;-51
2022/01/09 00:54:01;;;;;;;2.07;1.20;;;;;;;3.15;100.00;98103.22;838522;23;2541;-49
2022/01/09 00:54:22;;;;;;;1.80;1.10;;;;;;;3.24;100.00;98108.25;843352;23;879;-50
2022/01/09 00:54:43;;;;;;;1.40;1.00;;;;;;;3.31;100.00;98104.69;843305;23;930;-49
2022/01/09 00:55:06;;;;;;;2.13;1.10;;;;;;;3.24;100.00;98101.34;843314;23;797;-51
2022/01/09 00:55:26;;;;;;;1.95;1.00;;;;;;;3.19;100.00;98110.88;841877;23;4360;-51
2022/01/09 00:55:47;;;;;;;1.77;0.90;;;;;;;3.19;100.00;98103.13;844852;23;855;-49
2022/01/09 00:56:07;;;;;;;2.58;1.08;;;;;;;3.15;100.00;98109.22;847628;23;864;-54
2022/01/09 00:56:27;;;;;;;2.63;1.10;;;;;;;3.12;100.00;98105.84;848054;23;923;-48
2022/01/09 00:56:48;;;;;;;2.07;1.10;;;;;;;3.14;100.00;98104.09;843270;23;868;-50
2022/01/09 00:57:08;;;;;;;2.70;1.20;;;;;;;3.22;100.00;98105.66;843533;23;883;-50
2022/01/09 00:57:29;;;;;;;2.53;1.20;;;;;;;3.29;100.00;98108.16;843210;23;666;-49
2022/01/09 00:57:49;;;;;;;2.15;1.20;;;;;;;3.23;100.00;98106.53;843795;23;871;-50
2022/01/09 00:58:09;;;;;;;2.10;1.20;;;;;;;3.29;100.00;98111.59;843653;23;840;-48
2022/01/09 00:58:30;;;;;;;2.10;1.20;;;;;;;3.24;100.00;98100.50;840747;23;4223;-52
2022/01/09 00:58:50;;;;;;;2.13;1.13;;;;;;;3.15;100.00;98100.63;847746;23;946;-52
2022/01/09 00:59:10;;;;;;;2.67;1.20;;;;;;;3.10;100.00;98110.19;847671;23;844;-51
2022/01/09 00:59:31;;;;;;;1.90;1.00;;;;;;;3.15;100.00;98105.81;847288;23;773;-50
2022/01/09 00:59:51;;;;;;;1.80;1.00;;;;;;;3.12;100.00;98104.13;842262;23;844;-50
2022/01/09 01:00:12;;;;;;;2.50;1.00;;;;;;;3.10;100.00;98110.19;839694;23;934;-50
2022/01/09 01:00:35;;;;;;;2.28;1.05;;;;;;;3.23;100.00;98106.53;839284;23;965;-52
2022/01/09 01:00:55;;;;;;;2.42;1.10;;;;;;;3.25;100.00;98109.94;839231;23;827;-49
2022/01/09 01:01:16;;;;;;;1.90;1.10;;;;;;;3.30;100.00;98108.13;839566;23;891;-49
2022/01/09 01:01:36;;;;;;;1.55;1.00;;;;;;;3.29;100.00;98108.16;837585;23;4246;-49
2022/01/09 01:01:57;;;;;;;1.87;1.10;;;;;;;3.29;100.00;98111.59;844250;23;844;-51
2022/01/09 01:02:18;;;;;;;1.73;1.00;;;;;;;3.25;100.00;98115.09;843601;23;816;-49
2022/01/09 01:02:39;;;;;;;2.40;0.90;;;;;;;3.22;100.00;98109.97;841829;23;814;-51
2022/01/09 01:02:59;;;;;;;2.28;1.10;;;;;;;3.16;100.00;98102.34;842183;23;842;-49
2022/01/09 01:03:20;;;;;;;1.83;1.00;;;;;;;3.21;100.00;98109.16;843591;23;999;-54
2022/01/09 01:03:40;;;;;;;1.52;1.00;;;;;;;3.16;100.00;98110.94;843146;23;735;-49
2022/01/09 01:04:01;;;;;;;2.00;1.00;;;;;;;3.17;100.00;98110.06;844184;23;887;-50
2022/01/09 01:04:21;;;;;;;2.10;1.00;;;;;;;3.19;100.00;98110.03;846942;23;4504;-50
2022/01/09 01:04:42;;;;;;;1.73;1.00;;;;;;;3.26;100.00;98110.81;847768;23;923;-50
2022/01/09 01:05:04;;;;;;;1.85;1.00;;;;;;;3.26;100.00;98103.06;846343;23;806;-50
2022/01/09 01:05:25;;;;;;;1.85;1.02;;;;;;;3.19;100.00;98105.72;847252;23;859;-49
2022/01/09 01:05:46;;;;;;;1.83;1.00;;;;;;;3.14;100.00;98104.94;847023;23;830;-49
2022/01/09 01:06:07;;;;;;;1.95;1.00;;;;;;;3.15;100.00;98108.38;842184;23;1301;-50
2022/01/09 01:06:27;;;;;;;1.83;1.00;;;;;;;3.16;100.00;98110.09;843390;23;827;-50
2022/01/09 01:06:49;;;;;;;1.80;1.03;;;;;;;3.21;100.00;98119.47;843063;23;883;-50
2022/01/09 01:07:10;;;;;;;1.98;1.10;;;;;;;3.15;100.00;98110.97;837760;23;1398;-50
2022/01/09 01:07:30;;;;;;;1.75;1.05;;;;;;;3.10;100.00;98110.19;837149;23;4280;-51
2022/01/09 01:07:50;;;;;;;1.53;1.00;;;;;;;3.04;100.00;98105.97;840026;23;752;-49
2022/01/09 01:08:11;;;;;;;1.70;1.00;;;;;;;2.99;100.00;98113.78;837985;23;788;-52
2022/01/09 01:08:31;;;;;;;1.40;1.00;;;;;;;3.06;100.00;98105.06;838973;23;1940;-49
2022/01/09 01:08:52;;;;;;;1.70;1.00;;;;;;;3.24;100.00;98105.66;839833;23;740;-52
2022/01/09 01:09:12;;;;;;;2.40;1.10;;;;;;;3.16;100.00;98100.63;843109;23;748;-49
2022/01/09 01:09:33;;;;;;;2.65;1.20;;;;;;;3.16;100.00;98110.94;843274;23;791;-50
2022/01/09 01:09:53;;;;;;;1.93;0.93;;;;;;;3.12;100.00;98111.03;843819;23;760;-51
2022/01/09 01:10:14;;;;;;;1.73;0.90;;;;;;;3.17;100.00;98106.63;847646;23;906;-53
2022/01/09 01:10:34;;;;;;;2.10;1.00;;;;;;;3.16;100.00;98104.94;845951;23;4260;-49
2022/01/09 01:10:55;;;;;;;1.92;0.95;;;;;;;3.15;100.00;98110.97;847964;23;776;-51
2022/01/09 01:11:15;;;;;;;1.97;0.90;;;;;;;3.15;100.00;98104.06;847207;23;895;-52
2022/01/09 01:11:36;;;;;;;2.17;0.90;;;;;;;3.19;100.00;98107.47;847380;23;1309;-49
2022/01/09 01:12:01;;;;;;;2.30;1.00;;;;;;;3.18;100.00;98106.59;847081;23;898;-49
2022/01/09 01:12:21;;;;;;;1.42;0.90;;;;;;;3.15;100.00;98104.06;847454;23;949;-49
2022/01/09 01:12:41;;;;;;;1.07;0.80;;;;;;;3.12;100.00;98105.84;847301;23;872;-50
2022/01/09 01:13:02;;;;;;;1.45;0.90;;;;;;;3.09;100.00;98103.31;847802;23;772;-49
2022/01/09 01:13:23;;;;;;;2.03;0.85;;;;;;;3.13;100.00;98104.97;846315;23;4462;-52
2022/01/09 01:13:43;;;;;;;1.30;0.87;;;;;;;3.26;100.00;98103.91;847880;23;870;-50
2022/01/09 01:14:04;;;;;;;1.60;1.00;;;;;;;3.22;100.00;98108.25;847404;23;886;-49
2022/01/09 01:14:26;;;;;;;2.67;0.90;;;;;;;3.24;100.00;98100.50;846135;23;1229;-50
2022/01/09 01:14:47;;;;;;;2.10;0.90;;;;;;;3.19;100.00;98104.88;847824;23;904;-49
2022/01/09 01:15:08;;;;;;;1.50;0.85;;;;;;;3.20;100.00;98102.28;847545;23;922;-51
2022/01/09 01:15:28;;;;;;;2.13;0.93;;;;;;;3.23;100.00;98098.78;847287;23;835;-49
2022/01/09 01:15:49;;;;;;;1.70;0.90;;;;;;;3.22;100.00;98105.66;843937;23;796;-50
2022/01/09 01:16:09;;;;;;;1.25;0.80;;;;;;;3.23;100.00;98103.94;843060;23;895;-48
2022/01/09 01:16:29;;;;;;;1.30;0.80;;;;;;;3.20;100.00;98101.44;842092;23;4305;-49
2022/01/09 01:16:50;;;;;;;1.50;0.80;;;;;;;3.16;100.00;98099.78;843632;23;721;-49
2022/01/09 01:17:10;;;;;;;1.43;0.93;;;;;;;3.16;100.00;98099.78;843437;23;875;-50
2022/01/09 01:17:32;;;;;;;1.15;0.82;;;;;;;3.12;100.00;98100.69;839262;23;821;-50
2022/01/09 01:17:53;;;;;;;2.17;0.90;;;;;;;3.24;100.00;98092.75;843651;23;808;-51
2022/01/09 01:18:13;;;;;;;2.17;1.00;;;;;;;3.22;100.00;98097.06;843507;23;823;-48
2022/01/09 01:18:34;;;;;;;1.73;0.80;;;;;;;3.23;100.00;98102.22;843235;23;859;-50
2022/01/09 01:18:55;;;;;;;1.30;0.80;;;;;;;3.19;100.00;98095.38;838480;23;903;-49
2022/01/09 01:19:16;;;;;;;1.42;0.82;;;;;;;3.14;100.00;98098.94;839778;23;863;-49
2022/01/09 01:19:36;;;;;;;1.60;0.80;;;;;;;3.12;100.00;98096.38;841526;23;4353;-49
2022/01/09 01:19:57;;;;;;;1.80;0.90;;;;;;;3.13;100.00;98097.22;840337;23;737;-49
2022/01/09 01:20:21;;;;;;;1.38;0.90;;;;;;;3.10;100.00;98095.53;839227;23;903;-49
2022/01/09 01:20:41;;;;;;;1.35;0.90;;;;;;;3.06;100.00;98099.91;840083;23;1018;-50
2022/01/09 01:21:02;;;;;;;2.42;0.90;;;;;;;3.06;100.00;98099.91;842359;23;776;-49
2022/01/09 01:21:24;;;;;;;2.23;0.80;;;;;;;3.00;100.00;98096.56;839703;23;848;-50
2022/01/09 01:21:44;;;;;;;1.20;0.80;;;;;;;2.99;100.00;98095.72;841294;23;894;-49
2022/01/09 01:22:05;;;;;;;1.10;0.77;;;;;;;3.03;100.00;98096.50;838768;23;954;-49
2022/01/09 01:22:27;;;;;;;1.42;0.90;;;;;;;3.07;100.00;98095.59;837871;23;4376;-51
2022/01/09 01:22:49;;;;;;;1.77;0.88;;;;;;;3.08;100.00;98096.47;840736;23;927;-50
2022/01/09 01:23:10;;;;;;;2.17;1.00;;;;;;;3.06;100.00;98092.16;842216;23;807;-49
2022/01/09 01:23:30;;;;;;;2.40;1.13;;;;;;;3.11;100.00;98096.41;842973;23;792;-50
2022/01/09 01:23:52;;;;;;;1.80;1.00;;;;;;;3.13;100.00;98094.63;839043;23;832;-49
2022/01/09 01:24:12;;;;;;;1.55;1.00;;;;;;;3.14;100.00;98101.50;843747;23;962;-50
2022/01/09 01:24:36;;;;;;;1.80;1.00;;;;;;;3.15;100.00;98098.06;843000;23;804;-49
2022/01/09 01:24:57;;;;;;;1.50;0.90;;;;;;;3.20;100.00;98106.59;843521;23;730;-51
2022/01/09 01:25:19;;;;;;;1.67;0.90;;;;;;;3.21;100.00;98097.94;844057;23;979;-49
2022/01/09 01:25:40;;;;;;;1.52;0.90;;;;;;;3.24;100.00;98092.75;843231;23;4581;-50
2022/01/09 01:26:02;;;;;;;1.70;0.80;;;;;;;3.32;100.00;98102.94;848151;23;866;-49
2022/01/09 01:26:22;;;;;;;1.60;0.85;;;;;;;3.33;100.00;98102.06;847382;23;902;-49
2022/01/09 01:26:43;;;;;;;1.20;0.75;;;;;;;3.26;100.00;98100.47;847317;23;871;-50
2022/01/09 01:27:04;;;;;;;1.50;0.90;;;;;;;3.18;100.00;98098.84;847439;23;871;-49
2022/01/09 01:27:26;;;;;;;1.50;0.82;;;;;;;3.18;100.00;98100.59;841617;23;970;-49
2022/01/09 01:27:47;;;;;;;1.90;0.85;;;;;;;3.15;100.00;98098.91;841957;23;868;-50
2022/01/09 01:28:08;;;;;;;1.70;0.90;;;;;;;3.11;100.00;98101.56;843417;23;875;-50
2022/01/09 01:28:29;;;;;;;1.42;0.80;;;;;;;3.06;100.00;98104.22;841947;23;4344;-49
2022/01/09 01:28:50;;;;;;;1.98;0.90;;;;;;;3.08;100.00;98099.03;843701;23;851;-49
2022/01/09 01:29:10;;;;;;;1.60;0.80;;;;;;;3.08;100.00;98101.63;842780;23;807;-50
2022/01/09 01:29:35;;;;;;;2.28;0.80;;;;;;;3.13;100.00;98099.78;845679;23;819;-53
2022/01/09 01:29:55;;;;;;;2.00;0.90;;;;;;;3.15;100.00;98105.81;847831;23;994;-50
2022/01/09 01:30:16;;;;;;;1.90;0.90;;;;;;;3.25;100.00;98097.03;847987;23;914;-49
2022/01/09 01:30:38;;;;;;;2.50;1.00;;;;;;;3.26;100.00;98097.88;846971;23;795;-51
2022/01/09 01:30:59;;;;;;;2.13;0.90;;;;;;;3.22;100.00;98095.34;843165;23;910;-49
2022/01/09 01:31:19;;;;;;;2.22;0.90;;;;;;;3.17;100.00;98099.75;841234;23;4385;-49
2022/01/09 01:31:40;;;;;;;1.30;0.80;;;;;;;3.12;100.00;98095.53;842025;23;926;-49
2022/01/09 01:32:00;;;;;;;1.30;0.80;;;;;;;3.19;100.00;98097.13;843282;23;867;-50
2022/01/09 01:32:22;;;;;;;1.40;0.80;;;;;;;3.11;100.00;98098.97;842616;23;726;-49
2022/01/09 01:32:43;;;;;;;1.88;0.90;;;;;;;3.06;100.00;98105.06;842413;23;943;-49
2022/01/09 01:33:03;;;;;;;1.45;0.90;;;;;;;3.04;100.00;98100.81;847417;23;847;-49
2022/01/09 01:33:24;;;;;;;1.17;0.90;;;;;;;3.20;100.00;98096.25;847521;23;910;-49
2022/01/09 01:33:44;;;;;;;1.50;0.80;;;;;;;3.27;100.00;98102.16;847451;23;927;-50
2022/01/09 01:34:05;;;;;;;1.30;0.80;;;;;;;3.26;100.00;98100.47;843285;23;761;-48
2022/01/09 01:34:25;;;;;;;1.63;0.90;;;;;;;3.26;100.00;98103.91;841347;23;4206;-50
2022/01/09 01:34:45;;;;;;;1.60;0.90;;;;;;;3.34;100.00;98099.47;842923;23;692;-49
2022/01/09 01:35:07;;;;;;;1.47;0.80;;;;;;;3.32;100.00;98093.44;843343;23;618;-49
2022/01/09 01:35:27;;;;;;;1.73;0.70;;;;;;;3.43;100.00;98102.75;842743;23;911;-49
2022/01/09 01:35:48;;;;;;;1.40;0.70;;;;;;;3.44;100.00;98100.16;844059;23;768;-50
2022/01/09 01:36:09;;;;;;;1.17;0.80;;;;;;;3.36;100.00;98100.28;848128;23;710;-49
2022/01/09 01:36:29;;;;;;;1.40;0.77;;;;;;;3.29;100.00;98101.25;847525;23;880;-49
2022/01/09 01:36:49;;;;;;;1.23;0.80;;;;;;;3.28;100.00;98102.16;847576;23;852;-49
2022/01/09 01:37:10;;;;;;;1.67;0.90;;;;;;;3.23;100.00;98101.38;847505;23;855;-51
2022/01/09 01:37:30;;;;;;;2.17;0.90;;;;;;;3.26;100.00;98096.16;845495;23;4239;-49
2022/01/09 01:37:51;;;;;;;1.53;0.80;;;;;;;3.20;100.00;98102.28;848183;23;807;-49
2022/01/09 01:38:11;;;;;;;1.23;0.80;;;;;;;3.17;100.00;98104.03;848067;23;893;-49
2022/01/09 01:38:32;;;;;;;1.00;0.70;;;;;;;3.18;100.00;98103.16;847627;23;863;-52
2022/01/09 01:38:53;;;;;;;1.27;0.75;;;;;;;3.12;100.00;98108.44;847748;23;811;-49
2022/01/09 01:39:13;;;;;;;1.33;0.83;;;;;;;3.15;100.00;98098.91;847362;23;985;-51
2022/01/09 01:39:34;;;;;;;1.58;0.90;;;;;;;3.20;100.00;98104.84;847565;23;772;-51
2022/01/09 01:39:54;;;;;;;1.50;0.80;;;;;;;3.23;100.00;98101.38;847900;23;911;-50
2022/01/09 01:40:17;;;;;;;1.40;0.80;;;;;;;3.22;100.00;98099.66;847274;23;863;-49
2022/01/09 01:40:37;;;;;;;2.05;0.88;;;;;;;3.26;100.00;98100.47;845243;23;4283;-50
2022/01/09 01:40:58;;;;;;;2.72;1.00;;;;;;;3.22;100.00;98105.66;848314;23;934;-51
2022/01/09 01:41:19;;;;;;;2.03;0.93;;;;;;;3.30;100.00;98102.13;848008;23;946;-55
2022/01/09 01:41:39;;;;;;;1.73;0.80;;;;;;;3.33;100.00;98107.22;842110;23;1288;-49